Jerilderie Real Estate, NSW, 2716 Murrumbidgee

Thinking about buying in Jerilderie? Now could not be a better time, with a whopping 869 properties either residential or commercial there's certainly plenty to choose from.

The average property price for this area is $267,000 with prices in this suburb ranging from $64,000 to $568,000.

Distance to the coast is 269 Km.

Jerilderie Real Estate Market Outlook

In Jerilderie there has been a history of lower than average prices and demand, offering opportunities for investors or first home owners, especially in the context of the growth in working from home. Low average incomes in Jerilderie is reflected in smaller and lower quality accommodation. Over time this may change providsing long-term returns but in the short to medium term, prices are likely to be less than state averages. Low average earnings from people in Jerilderie leads to lower quality housing which also negatively impacts the provision of facilities. As a consequence this area is often seen as less desirable, with lower quality of housing and slower price growth. Low population density implies low demand and limits housing choices and price increases. Could be a good entry point for first home buyers needing to somehow get into the market. With very low industrial sector presence in Jerilderie the focus is on lifestyle, driving specific demand around facilities, services, and open space. Most people are employed in service sectors with a higher than average proportion being able to work from home. This may incease demand over the medium term.

About

Properties For Sale

Elders Real Estate 84 MAHONGA ST, JERILDERIE, NSW, 2716 3 1 3 $345,000
Elders Real Estate 101 MAHONGA ST, JERILDERIE, NSW, 2716 3 1 4 $224,000

Local Schools


Jerilderie Public School

St Joseph's Primary School

(While the above schools are located with the suburb of Jerilderie there may also be nearby schools whose catchments cover this suburb)

Local Crime Rates


Average Local Climate by month


(mm)
RAIN
Min (°C)
TEMP
Max (°C)
TEMP
Min (%)
HUMIDITY
Max (%)
HUMIDITY
(m/sec)
WIND
(MJ/sq m)
SOLAR
Jan1.31633.521.775.94.227.4
Feb2.11631.728.081.33.623.4
Mar1.313.328.032.083.83.519.1
Apr1.39.723.240.390.03.014.4
May1.06.018.053.295.82.810.4
Jun1.23.714.266.496.72.68.3
Jul1.53.813.866.997.63.08.7
Aug1.33.515.257.095.63.011.8
Sept1.45.118.946.495.63.416.3
Oct1.07.624.13492.83.521.5
Nov1.411.328.026.887.43.925.0
Dec1.814.231.322.479.34.028.3

source: Australian Government Bureau of Meteorology

Recently Sold Properties / House Prices

12-07-2022 $177,500 37 MAHONGA ST JERILDERIE 2716
06-07-2022 $231,000 30 BOLTON ST JERILDERIE 2716
20-06-2022 $8,000 34 MAHONGA ST JERILDERIE 2716
15-06-2022 $225,000 114 MAHONGA ST JERILDERIE 2716
14-06-2022 $130,000 117 JERILDERIE ST JERILDERIE 2716
09-06-2022 $98,000 50 JERILDERIE ST JERILDERIE 2716
03-06-2022 $215,000 73 NOWRANIE ST JERILDERIE 2716
29-04-2022 $108,000 5 WONGA CT JERILDERIE 2716
29-04-2022 $108,000 8 WONGA CT JERILDERIE 2716
28-04-2022 $435,000 90 MAHONGA ST JERILDERIE 2716
28-04-2022 $290,000 74 COREEN ST JERILDERIE 2716
26-04-2022 $255,000 77 NOWRANIE ST JERILDERIE 2716
21-04-2022 $185,000 78 JERILDERIE ST JERILDERIE 2716
20-04-2022 $225,000 109 MAHONGA ST JERILDERIE 2716
14-04-2022 $290,000 24 BOLTON ST JERILDERIE 2716
14-04-2022 $290,000 24 BOLTON ST JERILDERIE 2716
14-04-2022 $290,000 24 BOLTON ST JERILDERIE 2716
14-04-2022 $290,000 24 BOLTON ST JERILDERIE 2716
14-04-2022 $290,000 24 BOLTON ST JERILDERIE 2716
13-04-2022 $88,000 31 MAHONGA ST JERILDERIE 2716
12-04-2022 $480,000 1 SOUTHEY ST JERILDERIE 2716
12-04-2022 $480,000 2 SLEEMAN ST JERILDERIE 2716
12-04-2022 $528,000 1 SOUTHEY ST JERILDERIE 2716
12-04-2022 $528,000 2 SLEEMAN ST JERILDERIE 2716
05-04-2022 $110,000 85 NOWRANIE ST JERILDERIE 2716
21-03-2022 $230,000 7 MCDOUGALL ST JERILDERIE 2716
14-03-2022 $130,000 90 JERILDERIE ST JERILDERIE 2716
04-03-2022 $1,792,400 600 WOODSIDE RD JERILDERIE 2716
24-01-2022 $210,000 54 MAHONGA ST JERILDERIE 2716
19-01-2022 $68,200 36 JERILDERIE ST JERILDERIE 2716
17-01-2022 $150,000 5 BOLTON ST JERILDERIE 2716
05-01-2022 $185,000 103 JERILDERIE ST JERILDERIE 2716
20-12-2021 $450,000 4 RANKIN RD JERILDERIE 2716
20-12-2021 $65,000 4 ARGOON AVE JERILDERIE 2716
14-12-2021 $290,000 26 BOLTON ST JERILDERIE 2716
14-12-2021 $290,000 26 BOLTON ST JERILDERIE 2716
14-12-2021 $290,000 26 BOLTON ST JERILDERIE 2716
14-12-2021 $290,000 26 BOLTON ST JERILDERIE 2716
14-12-2021 $290,000 26 BOLTON ST JERILDERIE 2716
10-12-2021 $235,000 14 MAHONGA ST JERILDERIE 2716
23-11-2021 $330,000 16 JERILDERIE ST JERILDERIE 2716
08-11-2021 $59,000 55 BOLTON ST JERILDERIE 2716
05-11-2021 $90,000 1 MCDOUGALL ST JERILDERIE 2716
28-10-2021 $85,000 28 COONONG ST JERILDERIE 2716
25-10-2021 $210,000 106 MAHONGA ST JERILDERIE 2716
08-10-2021 $55,000 15 ARGOON AVE JERILDERIE 2716
05-10-2021 $165,000 128 JERILDERIE ST JERILDERIE 2716
27-09-2021 $227,000 31 COREEN ST JERILDERIE 2716
20-09-2021 $90,000 85 JERILDERIE ST JERILDERIE 2716
06-09-2021 $460,000 8 ARGOON AVE JERILDERIE 2716

Internet Speed

  • Fixed Wireless
  • Satellite

Residz covers 12m+ Australian properties and brings together a wealth of data to give you a better understanding of an area. From crime and schools to bush fire, flood risk and more. Begin your search for properties for sale or learn more about where you currently reside. Residz is an exciting next-generation Real Estate platform getting better by the day!